Time;durP1;ratioP1;P1;durP2;ratioP2;P2;SDS_P1;SDS_P2;PMS_P1;PMS_P2;Temp;Humidity;BMP_temperature;BMP_pressure;BME280_temperature;BME280_humidity;BME280_pressure;Samples;Min_cycle;Max_cycle;Signal;HPM_P1;HPM_P2
2023/07/01 00:01:50;;;;;;;8.13;6.33;;;;;;;;;;4992444;28;20436;-51
2023/07/01 00:04:17;;;;;;;7.87;6.03;;;;;;;;;;4992902;28;20491;-55
2023/07/01 00:06:44;;;;;;;9.10;6.23;;;;;;;;;;4991818;28;20547;-53
2023/07/01 00:09:11;;;;;;;7.13;5.70;;;;;;;;;;4992166;28;20554;-51
2023/07/01 00:11:39;;;;;;;9.30;5.93;;;;;;;;;;4992609;28;20520;-51
2023/07/01 00:14:06;;;;;;;6.83;6.03;;;;;;;;;;4992503;28;20561;-51
2023/07/01 00:16:35;;;;;;;7.27;5.13;;;;;;;;;;4992646;28;20444;-51
2023/07/01 00:19:02;;;;;;;8.00;6.40;;;;;;;;;;4992859;28;20492;-51
2023/07/01 00:21:29;;;;;;;8.63;5.70;;;;;;;;;;4992778;28;20772;-51
2023/07/01 00:23:57;;;;;;;8.37;6.20;;;;;;;;;;4992657;28;20714;-51
2023/07/01 00:26:25;;;;;;;6.60;5.47;;;;;;;;;;4992214;28;21015;-52
2023/07/01 00:28:52;;;;;;;8.00;5.83;;;;;;;;;;4992189;28;20490;-54
2023/07/01 00:31:20;;;;;;;8.07;5.80;;;;;;;;;;4992329;28;20518;-51
2023/07/01 00:33:48;;;;;;;7.83;5.80;;;;;;;;;;4992362;28;20820;-51
2023/07/01 00:36:16;;;;;;;8.07;6.17;;;;;;;;;;4992321;28;20499;-51
2023/07/01 00:38:43;;;;;;;8.93;5.87;;;;;;;;;;4992719;28;20507;-52
2023/07/01 00:41:10;;;;;;;7.07;5.10;;;;;;;;;;4992207;28;20956;-51
2023/07/01 00:43:37;;;;;;;5.60;4.70;;;;;;;;;;4992400;28;20532;-51
2023/07/01 00:46:05;;;;;;;8.03;4.97;;;;;;;;;;4991992;28;20502;-52
2023/07/01 00:48:32;;;;;;;7.13;5.33;;;;;;;;;;4992270;28;20539;-51
2023/07/01 00:51:01;;;;;;;6.93;5.17;;;;;;;;;;4991881;28;20573;-52
2023/07/01 00:53:28;;;;;;;7.47;5.00;;;;;;;;;;4992011;28;20539;-52
2023/07/01 00:55:55;;;;;;;6.17;5.17;;;;;;;;;;4990596;28;20527;-52
2023/07/01 00:58:23;;;;;;;7.33;5.40;;;;;;;;;;4992113;28;20547;-51
2023/07/01 01:00:50;;;;;;;7.30;5.77;;;;;;;;;;4992054;28;20468;-52
2023/07/01 01:03:22;;;;;;;7.80;5.13;;;;;;;;;;4991870;28;20534;-52
2023/07/01 01:05:51;;;;;;;7.73;5.60;;;;;;;;;;4992085;28;20448;-52
2023/07/01 01:08:21;;;;;;;6.60;5.53;;;;;;;;;;4991633;28;21059;-52
2023/07/01 01:10:49;;;;;;;8.33;4.97;;;;;;;;;;4991047;28;20954;-53
2023/07/01 01:13:17;;;;;;;7.47;5.47;;;;;;;;;;4991744;28;20470;-52
2023/07/01 01:15:44;;;;;;;6.97;5.07;;;;;;;;;;4991545;28;20858;-56
2023/07/01 01:18:16;;;;;;;6.50;5.40;;;;;;;;;;4991870;28;20557;-51
2023/07/01 01:20:44;;;;;;;7.83;5.77;;;;;;;;;;4991996;28;20440;-51
2023/07/01 01:23:15;;;;;;;7.20;5.10;;;;;;;;;;4991872;28;20443;-51
2023/07/01 01:25:48;;;;;;;7.90;5.03;;;;;;;;;;4991809;28;20828;-51
2023/07/01 01:28:17;;;;;;;7.73;5.40;;;;;;;;;;4991491;28;20468;-51
2023/07/01 01:30:44;;;;;;;6.67;5.17;;;;;;;;;;4991458;28;20570;-53
2023/07/01 01:33:11;;;;;;;7.90;5.30;;;;;;;;;;4991647;28;20441;-52
2023/07/01 01:35:39;;;;;;;7.33;5.90;;;;;;;;;;4991368;28;20452;-51
2023/07/01 01:38:06;;;;;;;6.87;5.67;;;;;;;;;;4991370;28;20547;-51
2023/07/01 01:40:38;;;;;;;7.73;5.50;;;;;;;;;;4991513;28;20887;-52
2023/07/01 01:43:10;;;;;;;8.93;5.73;;;;;;;;;;4991443;28;20990;-53
2023/07/01 01:45:39;;;;;;;7.70;6.00;;;;;;;;;;4991271;28;20451;-51
2023/07/01 01:48:07;;;;;;;6.43;5.60;;;;;;;;;;4991116;28;20500;-53
2023/07/01 01:50:34;;;;;;;7.30;5.40;;;;;;;;;;4991496;28;20479;-51
2023/07/01 01:53:02;;;;;;;7.70;6.07;;;;;;;;;;4991686;28;20522;-51
2023/07/01 01:55:31;;;;;;;7.10;5.20;;;;;;;;;;4990130;28;20952;-51
2023/07/01 01:57:59;;;;;;;7.57;5.57;;;;;;;;;;4991358;28;20558;-51
2023/07/01 02:00:26;;;;;;;7.30;5.63;;;;;;;;;;4991402;28;20474;-51
2023/07/01 02:02:55;;;;;;;7.70;5.40;;;;;;;;;;4991399;28;20522;-52
2023/07/01 02:05:22;;;;;;;8.90;6.70;;;;;;;;;;4991292;28;20503;-51
2023/07/01 02:07:49;;;;;;;8.90;6.23;;;;;;;;;;4990927;28;20543;-52
2023/07/01 02:10:19;;;;;;;9.83;6.60;;;;;;;;;;4991355;28;20559;-51
2023/07/01 02:12:46;;;;;;;8.17;6.47;;;;;;;;;;5000423;28;20447;-51
2023/07/01 02:15:13;;;;;;;7.30;5.80;;;;;;;;;;5010343;28;20538;-54
2023/07/01 02:17:40;;;;;;;9.10;5.80;;;;;;;;;;5010640;28;20561;-51
2023/07/01 02:20:09;;;;;;;7.30;5.20;;;;;;;;;;5010795;28;20530;-51
2023/07/01 02:22:37;;;;;;;7.90;5.90;;;;;;;;;;5013977;28;20870;-51
2023/07/01 02:25:04;;;;;;;9.90;6.50;;;;;;;;;;5014170;28;20535;-51
2023/07/01 02:27:32;;;;;;;10.00;6.80;;;;;;;;;;5014148;28;20467;-53
2023/07/01 02:29:59;;;;;;;8.13;5.70;;;;;;;;;;5013970;28;21068;-52
2023/07/01 02:32:26;;;;;;;7.67;5.73;;;;;;;;;;5014108;28;20586;-51
2023/07/01 02:34:54;;;;;;;8.23;6.47;;;;;;;;;;5014156;28;21042;-52
2023/07/01 02:37:22;;;;;;;6.93;5.50;;;;;;;;;;5013653;28;20550;-51
2023/07/01 02:39:50;;;;;;;9.57;7.40;;;;;;;;;;5014088;28;20997;-51
2023/07/01 02:42:19;;;;;;;7.40;5.60;;;;;;;;;;5013918;28;20448;-51
2023/07/01 02:44:47;;;;;;;6.90;5.43;;;;;;;;;;5014122;28;20594;-51
2023/07/01 02:47:14;;;;;;;6.60;5.30;;;;;;;;;;5013682;28;20467;-51
2023/07/01 02:49:41;;;;;;;7.10;5.40;;;;;;;;;;5013727;28;20483;-51
2023/07/01 02:52:09;;;;;;;7.40;5.50;;;;;;;;;;5014097;28;20955;-51
2023/07/01 02:54:39;;;;;;;7.23;5.80;;;;;;;;;;5013542;28;20538;-51
2023/07/01 02:57:07;;;;;;;8.00;5.60;;;;;;;;;;5013115;28;20471;-51
2023/07/01 02:59:35;;;;;;;8.43;6.37;;;;;;;;;;5013753;28;20814;-51
2023/07/01 03:02:02;;;;;;;8.17;5.47;;;;;;;;;;5014103;28;20510;-51
2023/07/01 03:04:30;;;;;;;10.87;6.40;;;;;;;;;;5013554;28;20470;-53
2023/07/01 03:06:57;;;;;;;6.87;5.90;;;;;;;;;;5012982;28;21025;-51
2023/07/01 03:09:24;;;;;;;7.60;5.73;;;;;;;;;;5013243;28;20469;-52
2023/07/01 03:11:53;;;;;;;7.40;5.27;;;;;;;;;;5013467;28;20514;-51
2023/07/01 03:14:20;;;;;;;9.87;6.30;;;;;;;;;;5012979;28;20474;-52
2023/07/01 03:16:49;;;;;;;7.60;5.20;;;;;;;;;;5013453;28;20526;-51
2023/07/01 03:19:17;;;;;;;6.13;5.10;;;;;;;;;;5013520;28;20450;-51
2023/07/01 03:21:45;;;;;;;7.80;5.43;;;;;;;;;;5013681;28;20475;-51
2023/07/01 03:24:12;;;;;;;7.20;6.13;;;;;;;;;;5013505;28;20451;-51
2023/07/01 03:26:40;;;;;;;7.93;5.57;;;;;;;;;;5012963;28;20537;-51
2023/07/01 03:29:08;;;;;;;9.70;6.80;;;;;;;;;;5013259;28;20900;-52
2023/07/01 03:31:35;;;;;;;7.67;5.93;;;;;;;;;;5013162;28;20479;-51
2023/07/01 03:34:03;;;;;;;7.83;5.50;;;;;;;;;;5012283;28;20991;-51
2023/07/01 03:36:30;;;;;;;6.63;5.47;;;;;;;;;;5012847;28;20479;-51
2023/07/01 03:38:58;;;;;;;7.53;6.37;;;;;;;;;;5012995;28;20545;-51
2023/07/01 03:41:26;;;;;;;8.07;5.30;;;;;;;;;;5013435;28;20446;-52
2023/07/01 03:43:53;;;;;;;7.53;5.47;;;;;;;;;;5013070;28;20452;-51
2023/07/01 03:46:21;;;;;;;7.40;5.57;;;;;;;;;;5012529;28;20525;-51
2023/07/01 03:48:49;;;;;;;6.57;5.30;;;;;;;;;;5012870;28;21053;-51
2023/07/01 03:51:16;;;;;;;6.87;5.37;;;;;;;;;;5012721;28;21033;-51
2023/07/01 03:53:43;;;;;;;7.83;4.67;;;;;;;;;;5012629;28;20510;-51
2023/07/01 03:56:10;;;;;;;7.73;4.87;;;;;;;;;;5011238;28;20510;-51
2023/07/01 03:58:38;;;;;;;5.87;4.47;;;;;;;;;;5012764;28;20521;-51
2023/07/01 04:01:05;;;;;;;5.93;4.50;;;;;;;;;;5012849;28;20475;-51
2023/07/01 04:03:36;;;;;;;7.17;5.10;;;;;;;;;;5012530;28;20506;-53
2023/07/01 04:06:05;;;;;;;7.90;5.30;;;;;;;;;;5012004;28;20537;-51
2023/07/01 04:08:32;;;;;;;5.90;4.07;;;;;;;;;;5012502;28;20499;-51
2023/07/01 04:11:00;;;;;;;4.80;3.93;;;;;;;;;;5012581;28;20474;-52
2023/07/01 04:13:27;;;;;;;5.30;3.80;;;;;;;;;;5012464;28;20479;-52
2023/07/01 04:15:55;;;;;;;5.57;3.93;;;;;;;;;;5012021;28;20530;-51
2023/07/01 04:18:22;;;;;;;5.63;4.30;;;;;;;;;;5011855;28;20470;-51
2023/07/01 04:20:50;;;;;;;6.20;4.43;;;;;;;;;;5012423;28;20570;-54
2023/07/01 04:23:18;;;;;;;4.77;4.27;;;;;;;;;;5005097;28;20527;-51
2023/07/01 04:25:45;;;;;;;6.07;4.00;;;;;;;;;;4992569;28;20544;-51
2023/07/01 04:28:12;;;;;;;5.77;4.33;;;;;;;;;;4992552;28;20500;-51
2023/07/01 04:30:39;;;;;;;5.67;4.57;;;;;;;;;;4992434;28;20522;-53
2023/07/01 04:33:07;;;;;;;6.07;4.23;;;;;;;;;;4992498;28;20543;-51
2023/07/01 04:35:34;;;;;;;5.80;3.60;;;;;;;;;;4992478;28;20447;-51
2023/07/01 04:38:03;;;;;;;5.37;3.80;;;;;;;;;;4992137;28;20922;-51
2023/07/01 04:40:30;;;;;;;4.70;3.30;;;;;;;;;;4992577;28;20494;-52
2023/07/01 04:42:58;;;;;;;4.60;3.47;;;;;;;;;;4992420;28;20528;-51
2023/07/01 04:45:26;;;;;;;5.67;3.40;;;;;;;;;;4992036;28;20471;-51
2023/07/01 04:47:53;;;;;;;3.63;2.40;;;;;;;;;;4992273;28;20470;-51
2023/07/01 04:50:21;;;;;;;4.80;3.10;;;;;;;;;;4992193;28;20562;-52
2023/07/01 04:52:48;;;;;;;4.83;3.47;;;;;;;;;;4992377;28;20536;-50
2023/07/01 04:55:18;;;;;;;4.70;3.63;;;;;;;;;;4991087;28;20877;-51
2023/07/01 04:57:46;;;;;;;4.73;3.70;;;;;;;;;;4991676;28;20468;-51
2023/07/01 05:00:14;;;;;;;6.87;3.80;;;;;;;;;;4992081;28;20494;-50
2023/07/01 05:02:41;;;;;;;4.90;3.77;;;;;;;;;;4991785;28;20476;-51
2023/07/01 05:05:09;;;;;;;5.07;3.33;;;;;;;;;;4991266;28;20495;-51
2023/07/01 05:07:36;;;;;;;4.17;3.63;;;;;;;;;;4988764;28;20459;-51
2023/07/01 05:10:03;;;;;;;3.80;2.90;;;;;;;;;;4991394;28;20448;-52
2023/07/01 05:12:32;;;;;;;4.93;3.10;;;;;;;;;;4991509;28;20503;-51
2023/07/01 05:14:59;;;;;;;4.07;2.90;;;;;;;;;;4991273;28;20535;-51
2023/07/01 05:17:27;;;;;;;6.77;3.23;;;;;;;;;;4991084;28;20464;-51
2023/07/01 05:19:54;;;;;;;5.00;3.40;;;;;;;;;;4991279;28;20526;-52
2023/07/01 05:22:21;;;;;;;5.90;3.27;;;;;;;;;;4991163;28;20490;-51
2023/07/01 05:24:48;;;;;;;5.23;3.30;;;;;;;;;;4991148;28;20452;-51
2023/07/01 05:27:16;;;;;;;5.10;3.30;;;;;;;;;;4991016;28;20851;-51
2023/07/01 05:29:44;;;;;;;3.93;2.43;;;;;;;;;;4991354;28;20547;-51
2023/07/01 05:32:11;;;;;;;4.43;3.10;;;;;;;;;;4991210;28;20484;-51
2023/07/01 05:34:39;;;;;;;4.17;2.57;;;;;;;;;;4990983;28;20483;-52
2023/07/01 05:37:06;;;;;;;3.60;2.77;;;;;;;;;;4990856;28;20492;-52
2023/07/01 05:39:33;;;;;;;4.13;3.00;;;;;;;;;;4988680;28;20475;-51
2023/07/01 05:42:00;;;;;;;3.70;2.60;;;;;;;;;;4991497;28;21008;-51
2023/07/01 05:44:27;;;;;;;3.50;2.40;;;;;;;;;;4991525;28;20475;-51
2023/07/01 05:46:56;;;;;;;4.80;3.03;;;;;;;;;;4990838;28;20475;-51
2023/07/01 05:49:23;;;;;;;5.53;2.60;;;;;;;;;;4991566;28;20535;-53
2023/07/01 05:51:51;;;;;;;3.90;2.87;;;;;;;;;;4990769;28;20508;-51
2023/07/01 05:54:18;;;;;;;4.50;2.80;;;;;;;;;;4991217;28;20817;-51
2023/07/01 05:56:45;;;;;;;3.97;2.60;;;;;;;;;;4992065;28;20991;-51
2023/07/01 05:59:13;;;;;;;6.03;3.13;;;;;;;;;;4994939;28;20522;-52
2023/07/01 06:01:40;;;;;;;3.60;2.30;;;;;;;;;;4994590;28;20467;-52
2023/07/01 06:04:09;;;;;;;3.53;2.33;;;;;;;;;;4994834;28;20526;-51
2023/07/01 06:06:37;;;;;;;4.60;3.20;;;;;;;;;;4992310;28;20881;-51
2023/07/01 06:09:04;;;;;;;4.23;2.50;;;;;;;;;;4994855;28;20499;-51
2023/07/01 06:11:31;;;;;;;4.07;2.30;;;;;;;;;;4994381;28;20507;-51
2023/07/01 06:13:59;;;;;;;4.67;2.30;;;;;;;;;;4995072;28;20523;-51
2023/07/01 06:16:26;;;;;;;4.00;2.33;;;;;;;;;;4994529;28;20983;-53
2023/07/01 06:18:53;;;;;;;2.27;1.00;;;;;;;;;;4994558;28;20554;-51
2023/07/01 06:21:22;;;;;;;2.13;1.00;;;;;;;;;;4995120;28;20510;-50
2023/07/01 06:23:49;;;;;;;3.67;2.20;;;;;;;;;;4994694;28;20502;-51
2023/07/01 06:26:16;;;;;;;3.43;2.50;;;;;;;;;;4994273;28;20535;-51
2023/07/01 06:28:43;;;;;;;3.20;2.20;;;;;;;;;;4994463;28;20562;-51
2023/07/01 06:31:11;;;;;;;3.17;1.50;;;;;;;;;;4994666;28;20512;-52
2023/07/01 06:33:39;;;;;;;2.23;1.27;;;;;;;;;;4994531;28;20539;-51
2023/07/01 06:36:06;;;;;;;3.03;1.40;;;;;;;;;;4994362;28;21031;-51
2023/07/01 06:38:35;;;;;;;3.63;2.20;;;;;;;;;;4994428;28;20476;-51
2023/07/01 06:41:02;;;;;;;2.93;1.57;;;;;;;;;;4994645;28;20436;-52
2023/07/01 06:43:29;;;;;;;2.97;1.70;;;;;;;;;;4994530;28;20948;-50
2023/07/01 06:45:57;;;;;;;1.70;0.80;;;;;;;;;;4994031;28;20475;-51
2023/07/01 06:48:25;;;;;;;1.77;0.70;;;;;;;;;;4994585;28;20468;-50
2023/07/01 06:50:52;;;;;;;2.57;0.70;;;;;;;;;;4994452;28;20526;-51
2023/07/01 06:53:19;;;;;;;2.17;0.80;;;;;;;;;;4994351;28;20480;-51
2023/07/01 06:55:48;;;;;;;3.90;1.80;;;;;;;;;;4993205;28;20949;-51
2023/07/01 06:58:15;;;;;;;2.80;1.60;;;;;;;;;;4994005;28;20885;-51
2023/07/01 07:00:43;;;;;;;3.50;1.70;;;;;;;;;;4993982;28;20440;-52
2023/07/01 07:03:10;;;;;;;2.27;0.90;;;;;;;;;;4994263;28;20535;-51
2023/07/01 07:05:38;;;;;;;3.70;1.70;;;;;;;;;;4993914;28;20495;-51
2023/07/01 07:08:05;;;;;;;3.00;1.53;;;;;;;;;;4994095;28;20563;-52
2023/07/01 07:10:33;;;;;;;6.30;1.60;;;;;;;;;;4994151;28;20514;-51
2023/07/01 07:13:03;;;;;;;2.20;1.10;;;;;;;;;;4994073;28;20568;-51
2023/07/01 07:15:30;;;;;;;3.67;1.80;;;;;;;;;;4993752;28;20495;-51
2023/07/01 07:17:59;;;;;;;1.83;0.70;;;;;;;;;;4993591;28;21047;-53
2023/07/01 07:20:26;;;;;;;2.97;1.67;;;;;;;;;;4993936;28;20452;-52
2023/07/01 07:22:54;;;;;;;3.40;1.60;;;;;;;;;;4993627;28;20475;-51
2023/07/01 07:25:22;;;;;;;3.13;1.30;;;;;;;;;;4993589;28;20535;-51
2023/07/01 07:27:49;;;;;;;2.10;1.07;;;;;;;;;;4993035;28;20984;-51
2023/07/01 07:30:18;;;;;;;2.93;1.50;;;;;;;;;;4992511;28;20456;-52
2023/07/01 07:32:45;;;;;;;1.93;0.87;;;;;;;;;;4993568;28;20475;-52
2023/07/01 07:35:12;;;;;;;2.43;1.40;;;;;;;;;;4993496;28;20537;-52
2023/07/01 07:37:40;;;;;;;2.50;1.20;;;;;;;;;;4993283;28;20560;-51
2023/07/01 07:40:08;;;;;;;6.63;1.80;;;;;;;;;;4993346;28;20487;-51
2023/07/01 07:42:35;;;;;;;3.63;2.27;;;;;;;;;;4993493;28;20444;-52
2023/07/01 07:45:03;;;;;;;3.30;2.03;;;;;;;;;;4993015;28;20448;-51
2023/07/01 07:47:31;;;;;;;6.53;2.47;;;;;;;;;;4992811;28;20553;-51
2023/07/01 07:49:59;;;;;;;7.20;2.60;;;;;;;;;;4993263;28;20471;-51
2023/07/01 07:52:26;;;;;;;6.60;1.87;;;;;;;;;;4993283;28;20467;-52
2023/07/01 07:54:53;;;;;;;3.80;1.43;;;;;;;;;;4992529;28;20448;-51
2023/07/01 07:57:20;;;;;;;2.57;1.23;;;;;;;;;;4992134;28;20547;-51
2023/07/01 07:59:48;;;;;;;3.70;1.60;;;;;;;;;;4992993;28;20490;-53
2023/07/01 08:02:15;;;;;;;4.03;1.20;;;;;;;;;;4992907;28;20487;-51
2023/07/01 08:04:43;;;;;;;2.60;1.40;;;;;;;;;;4992993;28;20535;-52
2023/07/01 08:07:11;;;;;;;6.20;1.23;;;;;;;;;;4992624;28;20547;-51
2023/07/01 08:09:38;;;;;;;2.63;1.60;;;;;;;;;;4992865;28;20514;-51
2023/07/01 08:12:06;;;;;;;2.57;1.20;;;;;;;;;;4992594;28;20562;-51
2023/07/01 08:14:33;;;;;;;3.40;1.23;;;;;;;;;;4992599;28;20463;-51
2023/07/01 08:17:01;;;;;;;3.33;1.50;;;;;;;;;;4992268;28;20484;-52
2023/07/01 08:19:28;;;;;;;2.73;1.20;;;;;;;;;;4991867;28;20536;-51
2023/07/01 08:21:57;;;;;;;3.10;1.20;;;;;;;;;;4991997;28;20440;-51
2023/07/01 08:24:25;;;;;;;2.40;1.20;;;;;;;;;;4992072;28;20535;-51
2023/07/01 08:26:52;;;;;;;2.00;1.10;;;;;;;;;;4992230;28;20861;-51
2023/07/01 08:29:19;;;;;;;24.63;4.23;;;;;;;;;;4992168;28;20530;-52
2023/07/01 08:31:46;;;;;;;11.87;2.20;;;;;;;;;;4991905;28;20483;-52
2023/07/01 08:34:14;;;;;;;5.43;1.90;;;;;;;;;;4992190;28;20534;-52
2023/07/01 08:36:41;;;;;;;5.40;2.50;;;;;;;;;;4992356;28;20448;-50
2023/07/01 08:39:10;;;;;;;2.43;1.40;;;;;;;;;;4992535;28;20444;-52
2023/07/01 08:41:39;;;;;;;2.50;1.20;;;;;;;;;;4992149;28;20475;-53
2023/07/01 08:44:07;;;;;;;4.33;1.37;;;;;;;;;;4991938;28;20532;-52
2023/07/01 08:46:34;;;;;;;50.57;17.67;;;;;;;;;;4991960;28;20480;-52
2023/07/01 08:49:02;;;;;;;17.03;8.30;;;;;;;;;;4991940;28;20500;-51
2023/07/01 08:51:30;;;;;;;35.33;15.23;;;;;;;;;;4991927;28;20531;-51
2023/07/01 08:53:58;;;;;;;7.70;4.20;;;;;;;;;;4991580;28;20494;-52
2023/07/01 08:56:27;;;;;;;12.67;7.80;;;;;;;;;;4990785;28;20444;-51
2023/07/01 08:58:55;;;;;;;6.43;3.70;;;;;;;;;;4991577;28;20902;-52
2023/07/01 09:01:22;;;;;;;5.23;2.70;;;;;;;;;;4990615;28;20531;-51
2023/07/01 09:03:51;;;;;;;2.90;1.83;;;;;;;;;;4990258;28;20539;-51
2023/07/01 09:06:20;;;;;;;4.00;2.13;;;;;;;;;;4989893;28;20449;-51
2023/07/01 09:08:47;;;;;;;4.07;1.90;;;;;;;;;;4989942;28;20472;-54
2023/07/01 09:11:16;;;;;;;3.37;1.90;;;;;;;;;;4990737;28;20531;-52
2023/07/01 09:13:45;;;;;;;3.80;2.30;;;;;;;;;;4991141;28;20519;-50
2023/07/01 09:16:12;;;;;;;9.50;2.37;;;;;;;;;;4991576;28;20466;-52
2023/07/01 09:18:43;;;;;;;4.23;1.90;;;;;;;;;;4990905;28;20906;-52
2023/07/01 09:21:18;;;;;;;3.00;2.30;;;;;;;;;;4991126;28;20502;-50
2023/07/01 09:23:45;;;;;;;4.87;1.70;;;;;;;;;;4992099;28;20523;-50
2023/07/01 09:26:14;;;;;;;6.70;1.80;;;;;;;;;;4991774;28;20495;-50
2023/07/01 09:28:42;;;;;;;2.73;1.77;;;;;;;;;;4991752;28;20500;-51
2023/07/01 09:31:11;;;;;;;2.43;1.60;;;;;;;;;;4993177;28;20539;-50
2023/07/01 09:33:39;;;;;;;2.80;1.90;;;;;;;;;;5009966;28;20561;-51
2023/07/01 09:36:09;;;;;;;2.73;1.50;;;;;;;;;;5013702;28;20465;-52
2023/07/01 09:38:50;;;;;;;3.00;1.60;;;;;;;;;;5013520;28;20467;-50
2023/07/01 09:41:18;;;;;;;3.07;1.67;;;;;;;;;;5014559;28;20451;-49
2023/07/01 09:43:46;;;;;;;3.80;2.27;;;;;;;;;;5015245;28;20497;-51
2023/07/01 09:46:14;;;;;;;2.87;1.80;;;;;;;;;;5014624;28;20534;-51
2023/07/01 09:48:51;;;;;;;4.77;2.20;;;;;;;;;;5014396;28;20503;-49
2023/07/01 09:51:19;;;;;;;6.20;2.00;;;;;;;;;;5015317;28;20447;-48
2023/07/01 09:53:46;;;;;;;2.90;1.83;;;;;;;;;;5015077;28;20511;-49
2023/07/01 09:56:15;;;;;;;5.50;2.00;;;;;;;;;;5014321;28;20447;-50
2023/07/01 09:58:43;;;;;;;3.63;2.00;;;;;;;;;;5009179;28;20980;-49
2023/07/01 10:01:10;;;;;;;4.60;2.67;;;;;;;;;;4994629;28;20932;-50
2023/07/01 10:03:39;;;;;;;3.83;2.10;;;;;;;;;;4995105;28;20518;-50
2023/07/01 10:06:06;;;;;;;2.87;2.00;;;;;;;;;;4994538;28;20532;-50
2023/07/01 10:08:34;;;;;;;6.03;2.30;;;;;;;;;;4993959;28;20503;-49
2023/07/01 10:11:03;;;;;;;5.13;1.80;;;;;;;;;;4995222;28;20450;-49
2023/07/01 10:13:32;;;;;;;2.93;2.03;;;;;;;;;;4994812;28;20964;-50
2023/07/01 10:16:02;;;;;;;5.90;2.67;;;;;;;;;;4994516;28;20448;-49
2023/07/01 10:18:30;;;;;;;9.10;2.43;;;;;;;;;;4993618;28;20475;-50
2023/07/01 10:21:13;;;;;;;4.23;2.20;;;;;;;;;;4993136;28;20448;-49
2023/07/01 10:23:46;;;;;;;4.40;2.37;;;;;;;;;;4993461;28;20440;-50
2023/07/01 10:26:28;;;;;;;4.80;3.27;;;;;;;;;;4993282;28;20790;-51
2023/07/01 10:28:55;;;;;;;6.10;3.20;;;;;;;;;;4993997;28;20546;-51
2023/07/01 10:31:22;;;;;;;7.33;2.33;;;;;;;;;;4994154;28;20455;-49
2023/07/01 10:33:50;;;;;;;9.43;2.87;;;;;;;;;;4994218;28;20575;-49
2023/07/01 10:36:18;;;;;;;4.07;2.33;;;;;;;;;;4994143;28;20975;-47
2023/07/01 10:38:47;;;;;;;5.70;3.00;;;;;;;;;;4994855;28;20495;-47
2023/07/01 10:41:14;;;;;;;5.00;3.10;;;;;;;;;;4994799;28;20535;-48
2023/07/01 10:43:41;;;;;;;3.97;2.13;;;;;;;;;;4994104;28;20876;-49
2023/07/01 10:46:14;;;;;;;4.57;3.07;;;;;;;;;;4992602;28;20502;-49
2023/07/01 10:48:42;;;;;;;5.37;2.30;;;;;;;;;;4993041;28;20496;-49
2023/07/01 10:51:10;;;;;;;6.17;2.93;;;;;;;;;;4993050;28;20511;-49
2023/07/01 10:53:55;;;;;;;4.87;3.00;;;;;;;;;;4993030;28;20563;-48
2023/07/01 10:56:24;;;;;;;4.17;2.63;;;;;;;;;;4992984;28;20527;-49
2023/07/01 10:59:06;;;;;;;5.50;3.20;;;;;;;;;;4993684;28;20548;-49
2023/07/01 11:01:43;;;;;;;5.40;3.10;;;;;;;;;;4994057;28;20523;-48
2023/07/01 11:04:11;;;;;;;4.57;2.87;;;;;;;;;;4994132;28;20527;-48
2023/07/01 11:06:46;;;;;;;4.67;2.87;;;;;;;;;;4994014;28;20476;-49
2023/07/01 11:09:14;;;;;;;5.57;2.50;;;;;;;;;;4992949;28;20465;-50
2023/07/01 11:11:43;;;;;;;3.77;3.10;;;;;;;;;;4994073;28;20445;-49
2023/07/01 11:14:11;;;;;;;4.27;3.53;;;;;;;;;;4994237;28;20499;-50
2023/07/01 11:16:39;;;;;;;4.67;3.60;;;;;;;;;;4993537;28;20980;-49
2023/07/01 11:19:07;;;;;;;4.57;2.50;;;;;;;;;;4990016;28;20496;-50
2023/07/01 11:21:34;;;;;;;4.80;2.63;;;;;;;;;;4987607;28;20536;-51
2023/07/01 11:24:03;;;;;;;4.83;3.00;;;;;;;;;;4990787;28;20498;-51
2023/07/01 11:26:31;;;;;;;4.83;2.57;;;;;;;;;;4987674;28;20528;-49
2023/07/01 11:29:00;;;;;;;4.83;2.50;;;;;;;;;;4983377;28;20998;-51
2023/07/01 11:31:31;;;;;;;5.57;2.50;;;;;;;;;;4989707;28;20461;-49
2023/07/01 11:33:58;;;;;;;6.43;3.17;;;;;;;;;;4985628;28;20559;-49
2023/07/01 11:36:34;;;;;;;4.30;3.10;;;;;;;;;;4991502;28;21004;-51
2023/07/01 11:39:05;;;;;;;4.67;3.30;;;;;;;;;;4983379;28;20680;-49
2023/07/01 11:44:05;;;;;;;3.90;2.97;;;;;;;;;;5055520;28;20465;-53
2023/07/01 11:46:33;;;;;;;4.43;3.60;;;;;;;;;;5051609;28;20863;-53
2023/07/01 11:49:11;;;;;;;4.57;2.60;;;;;;;;;;5061447;28;21024;-53
2023/07/01 11:51:39;;;;;;;3.67;2.67;;;;;;;;;;5044968;28;20449;-55
2023/07/01 11:54:06;;;;;;;6.53;3.47;;;;;;;;;;5040040;28;20513;-54
2023/07/01 11:56:33;;;;;;;4.13;3.07;;;;;;;;;;5038394;28;20871;-56
2023/07/01 11:59:01;;;;;;;4.03;3.20;;;;;;;;;;5051714;28;20519;-54
2023/07/01 12:01:29;;;;;;;3.90;2.77;;;;;;;;;;5050604;28;21117;-53
2023/07/01 12:03:57;;;;;;;4.40;3.50;;;;;;;;;;5044512;28;20945;-54
2023/07/01 12:06:27;;;;;;;4.23;2.70;;;;;;;;;;5047023;28;20914;-53
2023/07/01 12:08:57;;;;;;;3.90;2.83;;;;;;;;;;5049565;28;20469;-53
2023/07/01 12:11:25;;;;;;;4.37;3.20;;;;;;;;;;5039143;28;20488;-53
2023/07/01 12:13:52;;;;;;;4.70;3.40;;;;;;;;;;5030387;28;20565;-53
2023/07/01 12:16:20;;;;;;;4.63;3.30;;;;;;;;;;5038678;28;20449;-53
2023/07/01 12:18:48;;;;;;;4.77;3.10;;;;;;;;;;5043253;28;20470;-51
2023/07/01 12:21:15;;;;;;;4.60;3.07;;;;;;;;;;5051236;28;20886;-52
2023/07/01 12:23:43;;;;;;;5.67;3.07;;;;;;;;;;5051288;28;20488;-51
2023/07/01 12:26:11;;;;;;;5.17;3.10;;;;;;;;;;5051428;28;20513;-52
2023/07/01 12:28:39;;;;;;;4.80;3.23;;;;;;;;;;5047772;28;20477;-54
2023/07/01 12:31:06;;;;;;;4.60;3.00;;;;;;;;;;5051024;28;20973;-53
2023/07/01 12:33:34;;;;;;;4.23;3.00;;;;;;;;;;5051109;28;20568;-55
2023/07/01 12:36:02;;;;;;;5.73;2.40;;;;;;;;;;5051152;28;20537;-55
2023/07/01 12:38:30;;;;;;;4.60;2.80;;;;;;;;;;5051567;28;20516;-53
2023/07/01 12:40:58;;;;;;;5.70;3.20;;;;;;;;;;5043979;28;20434;-54
2023/07/01 12:43:27;;;;;;;3.97;3.57;;;;;;;;;;5049545;28;20511;-56
2023/07/01 12:45:57;;;;;;;3.40;2.70;;;;;;;;;;5042297;28;21011;-52
2023/07/01 12:48:26;;;;;;;4.27;3.20;;;;;;;;;;5047981;28;20524;-54
2023/07/01 12:50:54;;;;;;;3.30;2.60;;;;;;;;;;5039099;28;20950;-52
2023/07/01 12:53:24;;;;;;;4.10;2.97;;;;;;;;;;5041177;28;20485;-52
2023/07/01 12:55:51;;;;;;;3.47;2.73;;;;;;;;;;5040228;28;20541;-53
2023/07/01 12:58:19;;;;;;;3.97;3.40;;;;;;;;;;5043214;28;20524;-53
2023/07/01 13:00:48;;;;;;;3.90;2.73;;;;;;;;;;5051035;28;20532;-53
2023/07/01 13:03:15;;;;;;;4.73;2.87;;;;;;;;;;5050707;28;20445;-54
2023/07/01 13:05:42;;;;;;;3.70;2.60;;;;;;;;;;5050041;28;20477;-55
2023/07/01 13:08:10;;;;;;;4.10;2.90;;;;;;;;;;5050293;28;20470;-53
2023/07/01 13:10:41;;;;;;;4.30;2.67;;;;;;;;;;5050763;28;20937;-53
2023/07/01 13:13:08;;;;;;;4.97;2.90;;;;;;;;;;5044495;28;20591;-53
2023/07/01 13:15:36;;;;;;;7.50;2.93;;;;;;;;;;5047114;28;20945;-53
2023/07/01 13:18:05;;;;;;;3.97;2.77;;;;;;;;;;5047502;28;20560;-55
2023/07/01 13:20:34;;;;;;;5.00;3.67;;;;;;;;;;5047800;28;20449;-53
2023/07/01 13:23:01;;;;;;;4.97;2.67;;;;;;;;;;5047489;28;20457;-53
2023/07/01 13:25:29;;;;;;;3.33;2.57;;;;;;;;;;5047769;28;20530;-52
2023/07/01 13:28:01;;;;;;;4.73;3.43;;;;;;;;;;5047363;28;20528;-53
2023/07/01 13:30:33;;;;;;;3.60;2.87;;;;;;;;;;5047880;28;20528;-53
2023/07/01 13:33:02;;;;;;;4.10;3.17;;;;;;;;;;5047629;28;20843;-53
2023/07/01 13:35:29;;;;;;;3.67;2.73;;;;;;;;;;5047906;28;20553;-53
2023/07/01 13:38:05;;;;;;;7.43;3.00;;;;;;;;;;5047070;28;20941;-54
2023/07/01 13:40:33;;;;;;;4.20;2.90;;;;;;;;;;5047231;28;20445;-55
2023/07/01 13:43:06;;;;;;;6.90;3.20;;;;;;;;;;5047206;28;20845;-54
2023/07/01 13:45:33;;;;;;;4.00;3.10;;;;;;;;;;5047725;28;20445;-54
2023/07/01 13:48:01;;;;;;;6.23;3.70;;;;;;;;;;5047492;28;20531;-54
2023/07/01 13:50:28;;;;;;;3.80;2.90;;;;;;;;;;5047531;28;20526;-53
2023/07/01 13:52:56;;;;;;;4.10;3.27;;;;;;;;;;5047577;28;20544;-53
2023/07/01 13:55:24;;;;;;;3.93;2.60;;;;;;;;;;5046491;28;20449;-54
2023/07/01 13:57:51;;;;;;;3.43;2.70;;;;;;;;;;5046049;28;20485;-54
2023/07/01 14:00:37;;;;;;;4.17;3.10;;;;;;;;;;5046811;28;20524;-53
2023/07/01 14:03:07;;;;;;;4.83;3.57;;;;;;;;;;5045787;28;20936;-53
2023/07/01 14:05:38;;;;;;;4.00;3.23;;;;;;;;;;5046462;28;20531;-55
2023/07/01 14:08:05;;;;;;;4.10;3.30;;;;;;;;;;5047142;28;20935;-53
2023/07/01 14:10:35;;;;;;;5.57;3.20;;;;;;;;;;5047502;28;21473;-54
2023/07/01 14:13:03;;;;;;;5.13;3.53;;;;;;;;;;5047143;28;20576;-54
2023/07/01 14:15:33;;;;;;;4.43;3.20;;;;;;;;;;5046781;28;20521;-55
2023/07/01 14:18:01;;;;;;;3.90;2.93;;;;;;;;;;5050210;28;20437;-53
2023/07/01 14:20:29;;;;;;;4.67;3.80;;;;;;;;;;5050062;28;21056;-53
2023/07/01 14:22:59;;;;;;;4.63;3.40;;;;;;;;;;5049578;28;20989;-53
2023/07/01 14:25:30;;;;;;;3.70;2.70;;;;;;;;;;5050991;28;20464;-54
2023/07/01 14:27:58;;;;;;;4.60;3.57;;;;;;;;;;5049987;28;20552;-54
2023/07/01 14:30:40;;;;;;;3.87;3.00;;;;;;;;;;5040679;28;20533;-54
2023/07/01 14:33:08;;;;;;;4.27;3.57;;;;;;;;;;5030526;28;20541;-53
2023/07/01 14:35:36;;;;;;;4.20;3.80;;;;;;;;;;5031399;28;20527;-55
2023/07/01 14:38:04;;;;;;;5.03;3.97;;;;;;;;;;5031440;28;21213;-54
2023/07/01 14:40:31;;;;;;;4.03;3.23;;;;;;;;;;5030549;28;20450;-53
2023/07/01 14:43:07;;;;;;;4.57;3.30;;;;;;;;;;5038856;28;20481;-53
2023/07/01 14:45:34;;;;;;;5.27;3.00;;;;;;;;;;5050681;28;20528;-53
2023/07/01 14:48:01;;;;;;;5.03;4.10;;;;;;;;;;5050560;28;20455;-55
2023/07/01 14:50:29;;;;;;;4.10;3.27;;;;;;;;;;5050593;28;20531;-53
2023/07/01 14:52:57;;;;;;;4.83;3.73;;;;;;;;;;5045883;28;20505;-55